createdAt,value
2022-11-23T00:01:44.023Z,6.70
2022-11-23T00:04:13.967Z,9.80
2022-11-23T00:06:42.292Z,10.70
2022-11-23T00:09:11.668Z,8.60
2022-11-23T00:11:40.077Z,10.45
2022-11-23T00:14:07.575Z,9.38
2022-11-23T00:16:35.200Z,12.15
2022-11-23T00:19:03.850Z,11.68
2022-11-23T00:21:33.258Z,11.00
2022-11-23T00:24:01.388Z,11.10
2022-11-23T00:26:29.153Z,11.07
2022-11-23T00:28:57.058Z,12.00
2022-11-23T00:31:27.655Z,8.88
2022-11-23T00:33:57.485Z,10.82
2022-11-23T00:36:27.945Z,13.95
2022-11-23T00:38:56.354Z,8.23
2022-11-23T00:41:28.888Z,13.40
2022-11-23T00:44:12.994Z,7.38
2022-11-23T00:46:40.649Z,8.23
2022-11-23T00:49:08.268Z,8.43
2022-11-23T00:51:38.017Z,8.60
2022-11-23T00:54:06.693Z,11.77
2022-11-23T00:56:36.065Z,8.32
2022-11-23T00:59:06.739Z,7.25
2022-11-23T01:01:39.452Z,9.98
2022-11-23T01:04:10.255Z,9.25
2022-11-23T01:06:40.847Z,8.38
2022-11-23T01:09:18.500Z,11.95
2022-11-23T01:11:46.200Z,8.93
2022-11-23T01:14:13.846Z,11.70
2022-11-23T01:16:42.449Z,11.85
2022-11-23T01:19:19.223Z,11.57
2022-11-23T01:21:50.283Z,9.95
2022-11-23T01:24:23.483Z,14.43
2022-11-23T01:26:55.642Z,12.93
2022-11-23T01:29:33.808Z,9.75
2022-11-23T01:32:04.864Z,9.68
2022-11-23T01:34:38.259Z,8.98
2022-11-23T01:37:06.297Z,9.48
2022-11-23T01:39:33.984Z,11.68
2022-11-23T01:42:03.019Z,12.02
2022-11-23T01:44:36.820Z,11.50
2022-11-23T01:47:09.683Z,12.25
2022-11-23T01:49:50.048Z,14.82
2022-11-23T01:52:26.831Z,10.20
2022-11-23T01:54:59.884Z,9.95
2022-11-23T01:57:40.938Z,12.30
2022-11-23T02:00:13.560Z,11.40
2022-11-23T02:02:55.611Z,10.02
2022-11-23T02:05:34.142Z,12.77
2022-11-23T02:08:03.208Z,9.45
2022-11-23T02:10:34.200Z,12.43
2022-11-23T02:13:11.760Z,10.90
2022-11-23T02:15:40.683Z,14.40
2022-11-23T02:18:19.924Z,10.45
2022-11-23T02:20:50.980Z,12.80
2022-11-23T02:24:04.070Z,9.32
2022-11-23T02:26:37.170Z,11.38
2022-11-23T02:29:28.217Z,10.93
2022-11-23T02:31:58.390Z,11.80
2022-11-23T02:34:25.908Z,11.10
2022-11-23T02:36:57.730Z,9.30
2022-11-23T02:39:43.036Z,13.88
2022-11-23T02:42:11.114Z,12.35
2022-11-23T02:45:13.017Z,8.80
2022-11-23T02:47:43.234Z,13.77
2022-11-23T02:50:12.447Z,9.88
2022-11-23T02:52:43.340Z,10.13
2022-11-23T02:55:11.304Z,11.10
2022-11-23T02:57:38.889Z,10.93
2022-11-23T03:00:07.933Z,12.50
2022-11-23T03:02:35.385Z,9.70
2022-11-23T03:05:03.203Z,10.70
2022-11-23T03:07:33.146Z,8.98
2022-11-23T03:10:00.923Z,9.02
2022-11-23T03:12:28.561Z,10.00
2022-11-23T03:14:56.355Z,11.13
2022-11-23T03:17:25.034Z,12.05
2022-11-23T03:19:52.347Z,13.50
2022-11-23T03:22:20.053Z,11.02
2022-11-23T03:24:47.865Z,11.48
2022-11-23T03:27:17.116Z,10.70
2022-11-23T03:29:45.652Z,10.73
2022-11-23T03:32:19.125Z,9.18
2022-11-23T03:34:51.927Z,10.15
2022-11-23T03:37:21.158Z,11.68
2022-11-23T03:39:49.193Z,10.77
2022-11-23T03:42:35.780Z,11.07
2022-11-23T03:45:03.889Z,9.27
2022-11-23T03:47:31.378Z,13.82
2022-11-23T03:49:58.939Z,9.18
2022-11-23T03:52:27.670Z,13.18
2022-11-23T03:54:56.066Z,10.90
2022-11-23T03:57:23.694Z,11.52
2022-11-23T03:59:54.870Z,10.50
2022-11-23T04:02:22.830Z,11.23
2022-11-23T04:05:02.012Z,14.45
2022-11-23T04:07:51.213Z,13.88
2022-11-23T04:10:20.802Z,12.95
2022-11-23T04:13:20.822Z,11.25
2022-11-23T04:15:48.332Z,11.73
2022-11-23T04:18:16.089Z,11.23
2022-11-23T04:20:43.724Z,9.23
2022-11-23T04:23:14.198Z,12.88
2022-11-23T04:25:44.227Z,12.48
2022-11-23T04:28:12.636Z,12.68
2022-11-23T04:30:50.331Z,15.70
2022-11-23T04:33:19.013Z,11.05
2022-11-23T04:35:46.514Z,12.35
2022-11-23T04:38:14.923Z,13.57
2022-11-23T04:40:43.468Z,15.73
2022-11-23T04:43:11.814Z,13.15
2022-11-23T04:45:41.319Z,12.13
2022-11-23T04:48:15.778Z,11.23
2022-11-23T04:50:46.734Z,16.38
2022-11-23T04:53:21.071Z,11.35
2022-11-23T04:55:48.821Z,11.55
2022-11-23T04:58:17.498Z,13.15
2022-11-23T05:00:46.924Z,14.63
2022-11-23T05:03:15.596Z,14.55
2022-11-23T05:05:43.898Z,11.10
2022-11-23T05:08:11.483Z,11.65
2022-11-23T05:10:48.885Z,12.35
2022-11-23T05:13:16.274Z,13.60
2022-11-23T05:15:44.962Z,12.18
2022-11-23T05:18:16.372Z,12.10
2022-11-23T05:20:46.062Z,10.60
2022-11-23T05:23:15.045Z,11.15
2022-11-23T05:25:44.728Z,12.65
2022-11-23T05:28:39.104Z,10.93
2022-11-23T05:31:06.916Z,11.70
2022-11-23T05:33:34.609Z,12.77
2022-11-23T05:36:04.742Z,14.70
2022-11-23T05:38:37.434Z,13.00
2022-11-23T05:41:10.909Z,14.55
2022-11-23T05:43:41.194Z,11.15
2022-11-23T05:46:11.925Z,12.65
2022-11-23T05:48:39.621Z,9.13
2022-11-23T05:51:10.209Z,11.40
2022-11-23T05:53:42.028Z,17.73
2022-11-23T05:56:16.914Z,11.00
2022-11-23T05:58:59.252Z,9.18
2022-11-23T06:01:29.118Z,10.57
2022-11-23T06:04:00.555Z,12.32
2022-11-23T06:06:36.327Z,10.40
2022-11-23T06:09:04.539Z,13.40
2022-11-23T06:11:33.498Z,10.10
2022-11-23T06:14:09.975Z,14.20
2022-11-23T06:16:40.230Z,8.15
2022-11-23T06:19:20.331Z,11.88
2022-11-23T06:21:50.553Z,11.32
2022-11-23T06:24:24.092Z,14.57
2022-11-23T06:27:14.006Z,12.15
2022-11-23T06:29:45.199Z,10.20
2022-11-23T06:32:12.747Z,15.50
2022-11-23T06:34:40.088Z,13.63
2022-11-23T06:37:07.355Z,12.77
2022-11-23T06:39:35.789Z,10.05
2022-11-23T06:42:30.921Z,12.43
2022-11-23T06:44:52.762Z,11.25
2022-11-23T06:47:26.263Z,9.93
2022-11-23T06:49:54.035Z,12.82
2022-11-23T06:52:28.518Z,8.50
2022-11-23T06:54:56.002Z,14.43
2022-11-23T06:57:25.392Z,10.77
2022-11-23T06:59:53.948Z,15.07
2022-11-23T07:02:27.149Z,11.48
2022-11-23T07:04:57.323Z,13.13
2022-11-23T07:07:25.674Z,10.13
2022-11-23T07:10:06.814Z,9.70
2022-11-23T07:12:45.574Z,11.70
2022-11-23T07:15:14.902Z,13.27
2022-11-23T07:17:44.711Z,14.27
2022-11-23T07:20:13.815Z,12.00
2022-11-23T07:22:41.573Z,16.42
2022-11-23T07:25:09.696Z,13.98
2022-11-23T07:27:37.662Z,20.13
2022-11-23T07:30:06.893Z,15.65
2022-11-23T07:32:34.378Z,16.98
2022-11-23T07:35:01.680Z,14.52
2022-11-23T07:37:30.550Z,15.75
2022-11-23T07:39:58.616Z,19.83
2022-11-23T07:42:34.674Z,14.82
2022-11-23T07:45:06.995Z,17.30
2022-11-23T07:47:36.915Z,20.85
2022-11-23T07:50:07.045Z,21.23
2022-11-23T07:52:36.236Z,17.02
2022-11-23T07:55:04.645Z,15.88
2022-11-23T07:57:32.188Z,18.80
2022-11-23T07:59:59.431Z,15.00
2022-11-23T08:02:26.698Z,14.88
2022-11-23T08:04:53.871Z,14.98
2022-11-23T08:07:21.178Z,16.75
2022-11-23T08:10:14.166Z,13.85
2022-11-23T08:12:42.700Z,13.30
2022-11-23T08:15:12.724Z,14.95
2022-11-23T08:17:43.440Z,13.95
2022-11-23T08:20:11.808Z,12.52
2022-11-23T08:22:39.125Z,14.18
2022-11-23T08:25:06.940Z,13.10
2022-11-23T08:27:38.369Z,13.95
2022-11-23T08:30:14.740Z,13.95
2022-11-23T08:32:42.009Z,13.43
2022-11-23T08:35:09.712Z,14.25
2022-11-23T08:37:36.971Z,16.23
2022-11-23T08:40:04.716Z,14.95
2022-11-23T08:42:31.962Z,15.80
2022-11-23T08:45:00.227Z,14.80
2022-11-23T08:47:27.711Z,16.25
2022-11-23T08:49:55.162Z,9.45
2022-11-23T08:52:22.345Z,11.77
2022-11-23T08:54:49.533Z,13.23
2022-11-23T08:57:16.807Z,9.82
2022-11-23T08:59:43.984Z,14.80
2022-11-23T09:02:13.965Z,13.30
2022-11-23T09:04:41.731Z,10.52
2022-11-23T09:07:09.200Z,8.23
2022-11-23T09:09:36.689Z,10.57
2022-11-23T09:12:04.882Z,10.73
2022-11-23T09:14:33.181Z,10.27
2022-11-23T09:17:03.272Z,8.43
2022-11-23T09:19:30.766Z,8.07
2022-11-23T09:21:58.127Z,7.20
2022-11-23T09:24:26.196Z,8.60
2022-11-23T09:26:53.697Z,5.72
2022-11-23T09:29:21.002Z,7.25
2022-11-23T09:31:48.133Z,6.53
2022-11-23T09:34:15.358Z,8.15
2022-11-23T09:36:42.628Z,9.88
2022-11-23T09:39:11.414Z,8.30
2022-11-23T09:42:09.507Z,7.68
2022-11-23T09:45:10.888Z,9.45
2022-11-23T09:48:07.170Z,8.35
2022-11-23T09:51:05.627Z,7.50
2022-11-23T09:53:49.600Z,8.75
2022-11-23T09:56:58.481Z,7.70
2022-11-23T09:59:45.026Z,7.60
2022-11-23T10:02:28.778Z,7.40
2022-11-23T10:05:00.032Z,9.50
2022-11-23T10:08:14.840Z,6.72
2022-11-23T10:10:57.270Z,8.95
2022-11-23T10:13:44.059Z,8.90
2022-11-23T10:16:40.782Z,5.95
2022-11-23T10:19:16.979Z,7.38
2022-11-23T10:22:24.422Z,8.88
2022-11-23T10:24:53.986Z,8.00
2022-11-23T10:27:24.534Z,7.03
2022-11-23T10:29:56.513Z,7.72
2022-11-23T10:33:05.443Z,9.30
2022-11-23T10:35:35.224Z,7.75
2022-11-23T10:38:19.677Z,7.30
2022-11-23T10:41:10.573Z,9.65
2022-11-23T10:44:01.474Z,10.77
2022-11-23T10:46:37.968Z,8.52
2022-11-23T10:49:30.148Z,8.60
2022-11-23T10:52:33.405Z,6.20
2022-11-23T10:55:32.357Z,9.27
2022-11-23T10:58:01.230Z,8.05
2022-11-23T11:00:31.122Z,9.15
2022-11-23T11:03:12.428Z,6.20
2022-11-23T11:06:11.590Z,5.78
2022-11-23T11:09:03.710Z,6.78
2022-11-23T11:11:38.957Z,7.65
2022-11-23T11:14:19.511Z,9.45
2022-11-23T11:16:56.693Z,6.53
2022-11-23T11:19:32.484Z,6.63
2022-11-23T11:22:05.288Z,7.95
2022-11-23T11:24:44.841Z,6.88
2022-11-23T11:27:24.759Z,6.47
2022-11-23T11:29:59.507Z,9.10
2022-11-23T11:33:07.077Z,7.85
2022-11-23T11:35:41.164Z,8.23
2022-11-23T11:38:34.147Z,6.93
2022-11-23T11:41:13.487Z,6.82
2022-11-23T11:44:02.593Z,6.78
2022-11-23T11:46:40.785Z,5.65
2022-11-23T11:49:29.167Z,4.65
2022-11-23T11:52:22.235Z,6.35
2022-11-23T11:55:07.331Z,6.95
2022-11-23T11:57:45.894Z,5.75
2022-11-23T12:00:21.135Z,4.55
2022-11-23T12:03:10.522Z,4.97
2022-11-23T12:05:54.878Z,4.20
2022-11-23T12:08:41.038Z,4.72
2022-11-23T12:11:12.879Z,6.55
2022-11-23T12:13:46.814Z,5.80
2022-11-23T12:17:31.907Z,4.13
2022-11-23T12:20:15.783Z,4.30
2022-11-23T12:23:42.396Z,4.30
2022-11-23T12:26:24.604Z,5.30
2022-11-23T12:29:35.320Z,3.80
2022-11-23T12:32:46.448Z,3.83
2022-11-23T12:35:56.748Z,4.30
2022-11-23T12:39:22.632Z,3.58
2022-11-23T12:42:17.550Z,4.38
2022-11-23T12:45:32.983Z,3.20
2022-11-23T12:48:23.973Z,4.03
2022-11-23T12:51:58.253Z,4.35
2022-11-23T12:55:20.655Z,4.28
2022-11-23T12:58:12.380Z,5.53
2022-11-23T13:00:50.709Z,5.45
2022-11-23T13:03:45.932Z,4.10
2022-11-23T13:07:26.900Z,5.20
2022-11-23T13:10:06.134Z,5.63
2022-11-23T13:13:31.886Z,6.03
2022-11-23T13:16:35.658Z,5.90
2022-11-23T13:19:47.011Z,4.95
2022-11-23T13:22:22.520Z,3.95
2022-11-23T13:25:12.845Z,3.45
2022-11-23T13:27:49.332Z,4.45
2022-11-23T13:33:38.555Z,4.28
2022-11-23T13:36:15.311Z,7.13
2022-11-23T13:38:46.017Z,5.85
2022-11-23T13:41:35.276Z,6.63
2022-11-23T13:44:31.569Z,5.63
2022-11-23T13:47:29.651Z,5.95
2022-11-23T13:50:19.649Z,4.65
2022-11-23T13:52:52.314Z,5.00
2022-11-23T13:55:27.867Z,4.82
2022-11-23T13:58:23.561Z,5.32
2022-11-23T14:00:59.866Z,5.35
2022-11-23T14:03:50.124Z,3.80
2022-11-23T14:07:07.374Z,4.28
2022-11-23T14:10:29.897Z,7.22
2022-11-23T14:13:20.213Z,4.47
2022-11-23T14:15:59.487Z,5.35
2022-11-23T14:19:14.385Z,6.68
2022-11-23T14:22:45.632Z,7.13
2022-11-23T14:26:05.011Z,5.30
2022-11-23T14:29:22.085Z,6.45
2022-11-23T14:32:50.383Z,4.47
2022-11-23T14:35:59.348Z,3.70
2022-11-23T14:39:21.639Z,6.03
2022-11-23T14:41:59.877Z,5.47
2022-11-23T14:44:34.130Z,3.08
2022-11-23T14:47:08.432Z,4.78
2022-11-23T14:49:38.062Z,4.68
2022-11-23T14:52:06.351Z,4.45
2022-11-23T14:54:35.263Z,6.55
2022-11-23T14:57:05.529Z,5.82
2022-11-23T14:59:41.896Z,5.53
2022-11-23T15:02:19.163Z,5.88
2022-11-23T15:05:07.004Z,6.72
2022-11-23T15:07:57.286Z,4.57
2022-11-23T15:10:43.094Z,4.28
2022-11-23T15:13:23.336Z,4.50
2022-11-23T15:15:55.753Z,4.95
2022-11-23T15:18:39.521Z,4.70
2022-11-23T15:21:12.967Z,6.35
2022-11-23T15:23:57.307Z,5.50
2022-11-23T15:29:37.929Z,8.27
2022-11-23T15:32:31.190Z,4.82
2022-11-23T15:35:07.465Z,8.73
2022-11-23T15:37:47.018Z,5.30
2022-11-23T15:40:18.525Z,4.75
2022-11-23T15:42:51.054Z,10.18
2022-11-23T15:45:37.223Z,7.50
2022-11-23T15:48:18.817Z,7.53
2022-11-23T15:51:03.100Z,4.45
2022-11-23T15:53:44.253Z,7.93
2022-11-23T15:56:39.837Z,5.85
2022-11-23T15:59:54.670Z,4.88
2022-11-23T16:02:26.363Z,6.90
2022-11-23T16:05:19.401Z,8.80
2022-11-23T16:08:00.344Z,6.57
2022-11-23T16:10:37.528Z,4.57
2022-11-23T16:13:08.868Z,8.50
2022-11-23T16:15:41.665Z,10.05
2022-11-23T16:18:25.163Z,11.57
2022-11-23T16:20:59.869Z,12.48
2022-11-23T16:23:56.480Z,10.57
2022-11-23T16:26:34.617Z,8.18
2022-11-23T16:29:03.746Z,11.05
2022-11-23T16:31:43.302Z,7.30
2022-11-23T16:34:18.686Z,9.20
2022-11-23T16:36:46.481Z,10.63
2022-11-23T16:39:27.759Z,9.40
2022-11-23T16:42:23.037Z,10.95
2022-11-23T16:45:02.315Z,8.50
2022-11-23T16:47:30.715Z,9.98
2022-11-23T16:50:09.115Z,8.02
2022-11-23T16:53:12.128Z,7.80
2022-11-23T16:56:06.710Z,8.70
2022-11-23T16:58:51.683Z,8.00
2022-11-23T17:01:55.455Z,9.00
2022-11-23T17:04:43.335Z,8.52
2022-11-23T17:07:54.825Z,8.85
2022-11-23T17:10:48.340Z,7.28
2022-11-23T17:17:04.859Z,7.53
2022-11-23T17:23:47.826Z,7.95
2022-11-23T17:26:48.189Z,7.93
2022-11-23T17:29:44.117Z,7.43
2022-11-23T17:32:40.709Z,8.10
2022-11-23T17:35:49.824Z,7.00
2022-11-23T17:38:38.383Z,10.30
2022-11-23T17:41:15.789Z,9.45
2022-11-23T17:43:56.370Z,11.88
2022-11-23T17:46:24.848Z,7.00
2022-11-23T17:48:57.861Z,7.32
2022-11-23T17:51:25.761Z,9.35
2022-11-23T17:53:53.020Z,8.57
2022-11-23T17:56:29.923Z,6.35
2022-11-23T17:59:06.947Z,6.82
2022-11-23T18:01:50.510Z,8.68
2022-11-23T18:04:23.204Z,12.88
2022-11-23T18:07:09.653Z,6.25
2022-11-23T18:09:43.882Z,6.43
2022-11-23T18:12:21.911Z,7.35
2022-11-23T18:15:02.747Z,4.32
2022-11-23T18:17:42.232Z,11.48
2022-11-23T18:20:23.059Z,7.90
2022-11-23T18:23:09.965Z,7.30
2022-11-23T18:26:13.326Z,5.78
2022-11-23T18:29:16.844Z,8.45
2022-11-23T18:31:47.706Z,8.45
2022-11-23T18:34:24.117Z,8.65
2022-11-23T18:39:47.664Z,9.18
2022-11-23T18:42:24.361Z,8.18
2022-11-23T18:45:02.141Z,9.63
2022-11-23T18:47:29.400Z,7.85
2022-11-23T18:50:07.103Z,6.00
2022-11-23T18:52:47.401Z,11.65
2022-11-23T18:55:17.718Z,8.50
2022-11-23T19:00:45.634Z,8.40
2022-11-23T19:03:15.847Z,7.65
2022-11-23T19:05:43.028Z,9.13
2022-11-23T19:08:16.682Z,5.43
2022-11-23T19:10:56.230Z,7.95
2022-11-23T19:13:26.517Z,8.23
2022-11-23T19:16:16.156Z,11.95
2022-11-23T19:18:45.117Z,7.22
2022-11-23T19:21:38.012Z,11.52
2022-11-23T19:24:07.321Z,10.65
2022-11-23T19:26:34.769Z,12.57
2022-11-23T19:29:10.574Z,6.88
2022-11-23T19:31:50.709Z,10.48
2022-11-23T19:34:22.329Z,12.07
2022-11-23T19:36:49.687Z,8.73
2022-11-23T19:39:23.721Z,12.55
2022-11-23T19:41:51.423Z,13.40
2022-11-23T19:44:18.991Z,12.00
2022-11-23T19:46:46.241Z,11.30
2022-11-23T19:49:13.528Z,8.20
2022-11-23T19:51:40.759Z,10.70
2022-11-23T19:54:09.865Z,12.38
2022-11-23T19:56:37.307Z,21.13
2022-11-23T19:59:04.956Z,14.02
2022-11-23T20:01:32.896Z,10.60
2022-11-23T20:04:08.835Z,13.57
2022-11-23T20:06:42.451Z,11.77
2022-11-23T20:09:23.396Z,16.25
2022-11-23T20:11:51.691Z,11.52
2022-11-23T20:14:19.837Z,11.40
2022-11-23T20:16:47.894Z,11.48
2022-11-23T20:19:17.473Z,10.48
2022-11-23T20:21:47.029Z,12.38
2022-11-23T20:24:14.864Z,11.45
2022-11-23T20:26:43.242Z,8.98
2022-11-23T20:29:11.656Z,8.93
2022-11-23T20:31:39.308Z,10.77
2022-11-23T20:34:09.233Z,11.30
2022-11-23T20:36:38.981Z,13.50
2022-11-23T20:39:10.969Z,19.27
2022-11-23T20:41:38.805Z,9.20
2022-11-23T20:44:15.554Z,11.00
2022-11-23T20:49:32.029Z,9.18
2022-11-23T20:52:00.331Z,13.93
2022-11-23T20:54:27.656Z,9.82
2022-11-23T20:56:54.947Z,9.82
2022-11-23T20:59:23.826Z,9.02
2022-11-23T21:01:52.394Z,8.35
2022-11-23T21:04:19.587Z,9.50
2022-11-23T21:06:47.234Z,9.23
2022-11-23T21:09:16.148Z,10.63
2022-11-23T21:12:02.447Z,12.18
2022-11-23T21:14:31.730Z,11.50
2022-11-23T21:17:00.748Z,11.57
2022-11-23T21:19:37.669Z,14.48
2022-11-23T21:22:12.431Z,10.95
2022-11-23T21:24:40.998Z,14.73
2022-11-23T21:27:13.139Z,11.07
2022-11-23T21:29:40.599Z,12.38
2022-11-23T21:32:07.959Z,15.45
2022-11-23T21:34:35.568Z,15.93
2022-11-23T21:37:03.127Z,10.60
2022-11-23T21:39:32.319Z,10.00
2022-11-23T21:41:59.658Z,10.95
2022-11-23T21:44:26.860Z,17.50
2022-11-23T21:46:54.096Z,14.95
2022-11-23T21:49:21.611Z,15.80
2022-11-23T21:51:49.378Z,22.52
2022-11-23T21:54:16.760Z,49.58
2022-11-23T21:56:46.580Z,30.42
2022-11-23T21:59:15.658Z,20.52
2022-11-23T22:01:43.223Z,16.27
2022-11-23T22:04:16.150Z,17.80
2022-11-23T22:06:45.281Z,15.75
2022-11-23T22:09:15.154Z,16.85
2022-11-23T22:11:44.442Z,16.35
2022-11-23T22:14:16.041Z,15.95
2022-11-23T22:16:47.323Z,14.32
2022-11-23T22:19:17.025Z,13.48
2022-11-23T22:21:46.611Z,14.85
2022-11-23T22:24:18.361Z,17.38
2022-11-23T22:26:47.562Z,13.90
2022-11-23T22:29:17.652Z,15.98
2022-11-23T22:31:45.050Z,20.17
2022-11-23T22:34:15.239Z,16.00
2022-11-23T22:36:42.802Z,22.92
2022-11-23T22:39:10.142Z,15.05
2022-11-23T22:41:38.439Z,14.60
2022-11-23T22:44:10.607Z,18.15
2022-11-23T22:46:39.184Z,16.50
2022-11-23T22:49:07.033Z,10.45
2022-11-23T22:51:34.407Z,14.93
2022-11-23T22:54:02.520Z,15.73
2022-11-23T22:56:31.506Z,16.27
2022-11-23T22:58:59.342Z,20.88
2022-11-23T23:01:30.564Z,16.38
2022-11-23T23:04:01.875Z,17.35
2022-11-23T23:06:36.179Z,13.82
2022-11-23T23:09:07.323Z,10.05
2022-11-23T23:11:41.119Z,14.00
2022-11-23T23:14:08.427Z,10.70
2022-11-23T23:16:35.837Z,15.13
2022-11-23T23:19:06.376Z,16.20
2022-11-23T23:21:33.811Z,17.55
2022-11-23T23:24:01.484Z,15.95
2022-11-23T23:26:29.965Z,12.43
2022-11-23T23:29:00.348Z,17.30
2022-11-23T23:31:30.104Z,15.45
2022-11-23T23:34:00.026Z,15.68
2022-11-23T23:36:27.705Z,9.80
2022-11-23T23:38:55.301Z,11.57
2022-11-23T23:41:23.079Z,11.30
2022-11-23T23:43:50.732Z,15.15
2022-11-23T23:46:19.795Z,13.82
2022-11-23T23:48:47.434Z,11.05
2022-11-23T23:51:26.585Z,11.10
2022-11-23T23:53:54.147Z,12.40
2022-11-23T23:56:29.209Z,14.77
2022-11-23T23:58:59.170Z,15.60
